sensor_id;sensor_type;location;lat;lon;timestamp;P1;durP1;ratioP1;P2;durP2;ratioP2
71343;SDS011;59146;43.850;25.948;2023-05-10T00:01:53;20.65;;;15.23;;
71343;SDS011;59146;43.850;25.948;2023-05-10T00:04:19;19.92;;;14.50;;
71343;SDS011;59146;43.850;25.948;2023-05-10T00:06:45;22.05;;;15.43;;
71343;SDS011;59146;43.850;25.948;2023-05-10T00:09:10;21.67;;;15.52;;
71343;SDS011;59146;43.850;25.948;2023-05-10T00:11:35;25.92;;;16.42;;
71343;SDS011;59146;43.850;25.948;2023-05-10T00:14:01;20.83;;;15.52;;
71343;SDS011;59146;43.850;25.948;2023-05-10T00:16:26;21.73;;;16.38;;
71343;SDS011;59146;43.850;25.948;2023-05-10T00:18:52;23.85;;;16.23;;
71343;SDS011;59146;43.850;25.948;2023-05-10T00:21:17;25.17;;;17.30;;
71343;SDS011;59146;43.850;25.948;2023-05-10T00:23:43;23.50;;;16.75;;
71343;SDS011;59146;43.850;25.948;2023-05-10T00:26:08;26.33;;;16.30;;
71343;SDS011;59146;43.850;25.948;2023-05-10T00:28:33;18.58;;;15.10;;
71343;SDS011;59146;43.850;25.948;2023-05-10T00:30:59;17.75;;;13.68;;
71343;SDS011;59146;43.850;25.948;2023-05-10T00:33:24;20.20;;;15.52;;
71343;SDS011;59146;43.850;25.948;2023-05-10T00:35:50;21.17;;;15.23;;
71343;SDS011;59146;43.850;25.948;2023-05-10T00:38:15;20.50;;;14.88;;
71343;SDS011;59146;43.850;25.948;2023-05-10T00:40:41;22.17;;;14.32;;
71343;SDS011;59146;43.850;25.948;2023-05-10T00:43:06;18.60;;;13.65;;
71343;SDS011;59146;43.850;25.948;2023-05-10T00:45:33;18.50;;;13.52;;
71343;SDS011;59146;43.850;25.948;2023-05-10T00:48:01;20.63;;;14.48;;
71343;SDS011;59146;43.850;25.948;2023-05-10T00:50:28;26.48;;;15.50;;
71343;SDS011;59146;43.850;25.948;2023-05-10T00:52:55;27.25;;;16.27;;
71343;SDS011;59146;43.850;25.948;2023-05-10T00:55:22;23.85;;;15.10;;
71343;SDS011;59146;43.850;25.948;2023-05-10T00:57:48;22.73;;;15.57;;
71343;SDS011;59146;43.850;25.948;2023-05-10T01:00:14;24.92;;;15.90;;
71343;SDS011;59146;43.850;25.948;2023-05-10T01:02:43;21.20;;;15.73;;
71343;SDS011;59146;43.850;25.948;2023-05-10T01:05:10;31.45;;;18.00;;
71343;SDS011;59146;43.850;25.948;2023-05-10T01:07:36;22.75;;;16.05;;
71343;SDS011;59146;43.850;25.948;2023-05-10T01:10:01;22.90;;;16.38;;
71343;SDS011;59146;43.850;25.948;2023-05-10T01:12:27;22.50;;;16.00;;
71343;SDS011;59146;43.850;25.948;2023-05-10T01:14:52;21.35;;;16.23;;
71343;SDS011;59146;43.850;25.948;2023-05-10T01:17:19;25.10;;;16.77;;
71343;SDS011;59146;43.850;25.948;2023-05-10T01:19:45;23.13;;;16.92;;
71343;SDS011;59146;43.850;25.948;2023-05-10T01:41:39;21.10;;;16.02;;
71343;SDS011;59146;43.850;25.948;2023-05-10T01:46:38;25.20;;;15.38;;
71343;SDS011;59146;43.850;25.948;2023-05-10T01:49:07;21.33;;;15.82;;
71343;SDS011;59146;43.850;25.948;2023-05-10T01:51:41;18.60;;;15.23;;
71343;SDS011;59146;43.850;25.948;2023-05-10T01:54:14;20.48;;;16.45;;
71343;SDS011;59146;43.850;25.948;2023-05-10T01:56:44;18.77;;;15.30;;
71343;SDS011;59146;43.850;25.948;2023-05-10T01:59:13;20.08;;;16.42;;
71343;SDS011;59146;43.850;25.948;2023-05-10T02:01:43;26.23;;;17.05;;
71343;SDS011;59146;43.850;25.948;2023-05-10T02:04:10;23.65;;;16.50;;
71343;SDS011;59146;43.850;25.948;2023-05-10T02:06:38;23.63;;;17.08;;
71343;SDS011;59146;43.850;25.948;2023-05-10T02:09:05;23.77;;;17.95;;
71343;SDS011;59146;43.850;25.948;2023-05-10T02:11:32;23.10;;;16.90;;
71343;SDS011;59146;43.850;25.948;2023-05-10T02:13:58;27.17;;;19.05;;
71343;SDS011;59146;43.850;25.948;2023-05-10T02:16:26;31.92;;;17.58;;
71343;SDS011;59146;43.850;25.948;2023-05-10T02:18:52;23.48;;;18.55;;
71343;SDS011;59146;43.850;25.948;2023-05-10T02:21:19;19.95;;;16.60;;
71343;SDS011;59146;43.850;25.948;2023-05-10T02:23:46;22.02;;;16.15;;
71343;SDS011;59146;43.850;25.948;2023-05-10T02:26:15;20.60;;;15.57;;
71343;SDS011;59146;43.850;25.948;2023-05-10T02:28:42;22.77;;;17.20;;
71343;SDS011;59146;43.850;25.948;2023-05-10T02:31:08;20.55;;;16.63;;
71343;SDS011;59146;43.850;25.948;2023-05-10T02:33:35;25.58;;;17.40;;
71343;SDS011;59146;43.850;25.948;2023-05-10T02:36:04;25.02;;;17.60;;
71343;SDS011;59146;43.850;25.948;2023-05-10T02:38:32;23.00;;;17.40;;
71343;SDS011;59146;43.850;25.948;2023-05-10T02:41:00;27.52;;;18.13;;
71343;SDS011;59146;43.850;25.948;2023-05-10T02:43:26;25.52;;;17.63;;
71343;SDS011;59146;43.850;25.948;2023-05-10T02:45:55;44.72;;;19.38;;
71343;SDS011;59146;43.850;25.948;2023-05-10T02:48:20;28.83;;;19.35;;
71343;SDS011;59146;43.850;25.948;2023-05-10T02:50:45;37.83;;;18.98;;
71343;SDS011;59146;43.850;25.948;2023-05-10T02:53:18;35.97;;;18.42;;
71343;SDS011;59146;43.850;25.948;2023-05-10T02:55:49;32.60;;;20.40;;
71343;SDS011;59146;43.850;25.948;2023-05-10T02:58:16;33.13;;;20.67;;
71343;SDS011;59146;43.850;25.948;2023-05-10T03:00:44;35.90;;;20.67;;
71343;SDS011;59146;43.850;25.948;2023-05-10T03:03:10;36.78;;;20.75;;
71343;SDS011;59146;43.850;25.948;2023-05-10T03:05:36;29.33;;;19.75;;
71343;SDS011;59146;43.850;25.948;2023-05-10T03:08:01;31.45;;;19.25;;
71343;SDS011;59146;43.850;25.948;2023-05-10T03:10:29;30.00;;;18.95;;
71343;SDS011;59146;43.850;25.948;2023-05-10T03:15:48;26.35;;;18.48;;
71343;SDS011;59146;43.850;25.948;2023-05-10T03:18:18;28.70;;;17.75;;
71343;SDS011;59146;43.850;25.948;2023-05-10T03:20:48;23.10;;;17.15;;
71343;SDS011;59146;43.850;25.948;2023-05-10T03:26:00;21.92;;;16.73;;
71343;SDS011;59146;43.850;25.948;2023-05-10T03:28:27;22.48;;;17.05;;
71343;SDS011;59146;43.850;25.948;2023-05-10T03:30:55;21.50;;;17.23;;
71343;SDS011;59146;43.850;25.948;2023-05-10T03:33:21;22.45;;;16.83;;
71343;SDS011;59146;43.850;25.948;2023-05-10T03:35:47;25.65;;;17.85;;
71343;SDS011;59146;43.850;25.948;2023-05-10T03:38:13;23.08;;;16.40;;
71343;SDS011;59146;43.850;25.948;2023-05-10T03:40:38;22.17;;;17.00;;
71343;SDS011;59146;43.850;25.948;2023-05-10T03:43:04;28.58;;;17.33;;
71343;SDS011;59146;43.850;25.948;2023-05-10T03:45:29;23.60;;;16.60;;
71343;SDS011;59146;43.850;25.948;2023-05-10T03:47:56;24.05;;;16.85;;
71343;SDS011;59146;43.850;25.948;2023-05-10T03:50:22;20.48;;;16.58;;
71343;SDS011;59146;43.850;25.948;2023-05-10T03:52:47;17.98;;;14.07;;
71343;SDS011;59146;43.850;25.948;2023-05-10T03:55:13;20.10;;;16.15;;
71343;SDS011;59146;43.850;25.948;2023-05-10T03:57:39;25.40;;;16.98;;
71343;SDS011;59146;43.850;25.948;2023-05-10T04:00:04;22.58;;;16.30;;
71343;SDS011;59146;43.850;25.948;2023-05-10T04:02:30;19.13;;;14.50;;
71343;SDS011;59146;43.850;25.948;2023-05-10T04:04:56;14.88;;;12.02;;
71343;SDS011;59146;43.850;25.948;2023-05-10T04:07:21;14.55;;;11.38;;
71343;SDS011;59146;43.850;25.948;2023-05-10T04:09:47;17.38;;;10.38;;
71343;SDS011;59146;43.850;25.948;2023-05-10T04:12:12;13.40;;;10.75;;
71343;SDS011;59146;43.850;25.948;2023-05-10T04:14:38;14.32;;;10.25;;
71343;SDS011;59146;43.850;25.948;2023-05-10T04:17:03;11.20;;;9.43;;
71343;SDS011;59146;43.850;25.948;2023-05-10T04:19:29;14.70;;;9.75;;
71343;SDS011;59146;43.850;25.948;2023-05-10T04:21:55;21.58;;;9.73;;
71343;SDS011;59146;43.850;25.948;2023-05-10T04:24:20;19.75;;;10.35;;
71343;SDS011;59146;43.850;25.948;2023-05-10T04:26:46;12.88;;;9.45;;
71343;SDS011;59146;43.850;25.948;2023-05-10T04:29:11;10.70;;;9.52;;
71343;SDS011;59146;43.850;25.948;2023-05-10T04:31:37;18.77;;;9.20;;
71343;SDS011;59146;43.850;25.948;2023-05-10T04:34:02;9.70;;;8.70;;
71343;SDS011;59146;43.850;25.948;2023-05-10T04:36:28;13.52;;;9.70;;
71343;SDS011;59146;43.850;25.948;2023-05-10T04:38:53;15.07;;;9.48;;
71343;SDS011;59146;43.850;25.948;2023-05-10T04:41:19;15.45;;;9.73;;
71343;SDS011;59146;43.850;25.948;2023-05-10T04:43:45;16.88;;;10.10;;
71343;SDS011;59146;43.850;25.948;2023-05-10T04:46:11;17.48;;;10.25;;
71343;SDS011;59146;43.850;25.948;2023-05-10T04:48:36;18.15;;;10.10;;
71343;SDS011;59146;43.850;25.948;2023-05-10T04:51:02;12.50;;;9.95;;
71343;SDS011;59146;43.850;25.948;2023-05-10T04:53:29;15.85;;;9.77;;
71343;SDS011;59146;43.850;25.948;2023-05-10T04:55:54;12.75;;;9.43;;
71343;SDS011;59146;43.850;25.948;2023-05-10T04:58:20;16.17;;;10.60;;
71343;SDS011;59146;43.850;25.948;2023-05-10T05:00:45;18.63;;;11.50;;
71343;SDS011;59146;43.850;25.948;2023-05-10T05:03:11;19.23;;;10.60;;
71343;SDS011;59146;43.850;25.948;2023-05-10T05:05:36;23.08;;;14.63;;
71343;SDS011;59146;43.850;25.948;2023-05-10T05:08:02;27.88;;;17.05;;
71343;SDS011;59146;43.850;25.948;2023-05-10T05:10:27;26.58;;;12.82;;
71343;SDS011;59146;43.850;25.948;2023-05-10T05:12:53;22.10;;;13.35;;
71343;SDS011;59146;43.850;25.948;2023-05-10T05:15:18;24.33;;;14.02;;
71343;SDS011;59146;43.850;25.948;2023-05-10T05:17:44;27.88;;;17.77;;
71343;SDS011;59146;43.850;25.948;2023-05-10T05:20:09;27.95;;;16.35;;
71343;SDS011;59146;43.850;25.948;2023-05-10T05:22:36;22.10;;;16.67;;
71343;SDS011;59146;43.850;25.948;2023-05-10T05:25:02;31.27;;;16.88;;
71343;SDS011;59146;43.850;25.948;2023-05-10T05:27:28;25.50;;;18.08;;
71343;SDS011;59146;43.850;25.948;2023-05-10T05:29:54;28.45;;;18.90;;
71343;SDS011;59146;43.850;25.948;2023-05-10T05:32:20;26.02;;;19.65;;
71343;SDS011;59146;43.850;25.948;2023-05-10T05:34:45;40.80;;;20.40;;
71343;SDS011;59146;43.850;25.948;2023-05-10T05:37:14;33.08;;;20.23;;
71343;SDS011;59146;43.850;25.948;2023-05-10T05:39:41;25.15;;;18.83;;
71343;SDS011;59146;43.850;25.948;2023-05-10T05:42:07;32.92;;;19.33;;
71343;SDS011;59146;43.850;25.948;2023-05-10T05:44:33;32.60;;;19.50;;
71343;SDS011;59146;43.850;25.948;2023-05-10T05:46:58;38.20;;;18.05;;
71343;SDS011;59146;43.850;25.948;2023-05-10T05:49:23;35.05;;;20.38;;
71343;SDS011;59146;43.850;25.948;2023-05-10T05:51:49;31.52;;;19.63;;
71343;SDS011;59146;43.850;25.948;2023-05-10T05:54:15;23.73;;;16.65;;
71343;SDS011;59146;43.850;25.948;2023-05-10T05:56:40;25.52;;;16.80;;
71343;SDS011;59146;43.850;25.948;2023-05-10T05:59:06;27.27;;;17.98;;
71343;SDS011;59146;43.850;25.948;2023-05-10T06:01:31;24.60;;;18.88;;
71343;SDS011;59146;43.850;25.948;2023-05-10T06:03:57;32.38;;;18.65;;
71343;SDS011;59146;43.850;25.948;2023-05-10T06:06:22;30.92;;;20.80;;
71343;SDS011;59146;43.850;25.948;2023-05-10T06:08:47;32.67;;;19.65;;
71343;SDS011;59146;43.850;25.948;2023-05-10T06:11:13;33.45;;;18.33;;
71343;SDS011;59146;43.850;25.948;2023-05-10T06:13:39;20.83;;;16.25;;
71343;SDS011;59146;43.850;25.948;2023-05-10T06:16:04;17.25;;;14.25;;
71343;SDS011;59146;43.850;25.948;2023-05-10T06:18:30;19.98;;;15.95;;
71343;SDS011;59146;43.850;25.948;2023-05-10T06:20:56;27.30;;;16.55;;
71343;SDS011;59146;43.850;25.948;2023-05-10T06:23:22;27.90;;;19.98;;
71343;SDS011;59146;43.850;25.948;2023-05-10T06:25:47;31.98;;;19.63;;
71343;SDS011;59146;43.850;25.948;2023-05-10T06:28:13;34.50;;;17.10;;
71343;SDS011;59146;43.850;25.948;2023-05-10T06:30:38;35.65;;;19.55;;
71343;SDS011;59146;43.850;25.948;2023-05-10T06:33:04;38.35;;;19.63;;
71343;SDS011;59146;43.850;25.948;2023-05-10T06:35:29;24.23;;;16.83;;
71343;SDS011;59146;43.850;25.948;2023-05-10T06:37:56;21.10;;;14.05;;
71343;SDS011;59146;43.850;25.948;2023-05-10T06:40:21;26.63;;;15.77;;
71343;SDS011;59146;43.850;25.948;2023-05-10T06:42:47;24.00;;;15.18;;
71343;SDS011;59146;43.850;25.948;2023-05-10T06:45:13;17.17;;;13.73;;
71343;SDS011;59146;43.850;25.948;2023-05-10T06:47:40;18.90;;;14.80;;
71343;SDS011;59146;43.850;25.948;2023-05-10T06:50:09;19.05;;;15.20;;
71343;SDS011;59146;43.850;25.948;2023-05-10T06:52:36;29.53;;;16.13;;
71343;SDS011;59146;43.850;25.948;2023-05-10T06:55:02;38.17;;;16.90;;
71343;SDS011;59146;43.850;25.948;2023-05-10T06:57:28;19.08;;;13.70;;
71343;SDS011;59146;43.850;25.948;2023-05-10T06:59:54;30.33;;;14.20;;
71343;SDS011;59146;43.850;25.948;2023-05-10T07:02:21;32.80;;;14.90;;
71343;SDS011;59146;43.850;25.948;2023-05-10T07:04:46;30.08;;;13.55;;
71343;SDS011;59146;43.850;25.948;2023-05-10T07:07:13;20.17;;;12.70;;
71343;SDS011;59146;43.850;25.948;2023-05-10T07:09:39;15.00;;;11.68;;
71343;SDS011;59146;43.850;25.948;2023-05-10T07:12:04;28.73;;;12.70;;
71343;SDS011;59146;43.850;25.948;2023-05-10T07:14:30;19.88;;;11.43;;
71343;SDS011;59146;43.850;25.948;2023-05-10T07:16:55;17.23;;;11.38;;
71343;SDS011;59146;43.850;25.948;2023-05-10T07:19:20;19.58;;;11.60;;
71343;SDS011;59146;43.850;25.948;2023-05-10T07:21:46;17.73;;;11.02;;
71343;SDS011;59146;43.850;25.948;2023-05-10T07:24:11;17.40;;;12.07;;
71343;SDS011;59146;43.850;25.948;2023-05-10T07:26:37;22.05;;;11.85;;
71343;SDS011;59146;43.850;25.948;2023-05-10T07:29:02;22.20;;;10.95;;
71343;SDS011;59146;43.850;25.948;2023-05-10T07:31:27;23.85;;;10.77;;
71343;SDS011;59146;43.850;25.948;2023-05-10T07:33:53;23.13;;;11.00;;
71343;SDS011;59146;43.850;25.948;2023-05-10T07:36:18;14.90;;;10.63;;
71343;SDS011;59146;43.850;25.948;2023-05-10T07:38:44;11.85;;;9.95;;
71343;SDS011;59146;43.850;25.948;2023-05-10T07:41:11;17.42;;;10.60;;
71343;SDS011;59146;43.850;25.948;2023-05-10T07:43:36;19.92;;;10.88;;
71343;SDS011;59146;43.850;25.948;2023-05-10T07:46:02;14.32;;;11.45;;
71343;SDS011;59146;43.850;25.948;2023-05-10T07:48:27;13.32;;;10.68;;
71343;SDS011;59146;43.850;25.948;2023-05-10T07:50:53;18.00;;;11.20;;
71343;SDS011;59146;43.850;25.948;2023-05-10T07:53:18;17.83;;;10.70;;
71343;SDS011;59146;43.850;25.948;2023-05-10T07:55:43;14.65;;;9.82;;
71343;SDS011;59146;43.850;25.948;2023-05-10T07:58:10;10.32;;;9.15;;
71343;SDS011;59146;43.850;25.948;2023-05-10T08:00:35;10.65;;;8.85;;
71343;SDS011;59146;43.850;25.948;2023-05-10T08:03:07;15.55;;;8.82;;
71343;SDS011;59146;43.850;25.948;2023-05-10T08:05:32;16.05;;;9.52;;
71343;SDS011;59146;43.850;25.948;2023-05-10T08:07:57;11.13;;;6.70;;
71343;SDS011;59146;43.850;25.948;2023-05-10T08:10:24;11.60;;;8.02;;
71343;SDS011;59146;43.850;25.948;2023-05-10T08:12:50;15.18;;;7.43;;
71343;SDS011;59146;43.850;25.948;2023-05-10T08:15:15;12.68;;;8.93;;
71343;SDS011;59146;43.850;25.948;2023-05-10T08:17:41;26.92;;;8.23;;
71343;SDS011;59146;43.850;25.948;2023-05-10T08:20:08;18.70;;;8.52;;
71343;SDS011;59146;43.850;25.948;2023-05-10T08:22:33;14.98;;;7.93;;
71343;SDS011;59146;43.850;25.948;2023-05-10T08:24:59;9.05;;;7.35;;
71343;SDS011;59146;43.850;25.948;2023-05-10T08:27:24;12.55;;;7.90;;
71343;SDS011;59146;43.850;25.948;2023-05-10T08:29:49;10.88;;;7.47;;
71343;SDS011;59146;43.850;25.948;2023-05-10T08:32:15;13.75;;;7.60;;
71343;SDS011;59146;43.850;25.948;2023-05-10T08:34:40;10.80;;;6.90;;
71343;SDS011;59146;43.850;25.948;2023-05-10T08:37:06;14.00;;;6.32;;
71343;SDS011;59146;43.850;25.948;2023-05-10T08:39:34;8.23;;;4.97;;
71343;SDS011;59146;43.850;25.948;2023-05-10T08:42:01;10.38;;;4.90;;
71343;SDS011;59146;43.850;25.948;2023-05-10T08:44:29;6.93;;;4.15;;
71343;SDS011;59146;43.850;25.948;2023-05-10T08:46:57;10.13;;;4.18;;
71343;SDS011;59146;43.850;25.948;2023-05-10T08:49:27;6.20;;;2.80;;
71343;SDS011;59146;43.850;25.948;2023-05-10T08:51:56;4.10;;;2.70;;
71343;SDS011;59146;43.850;25.948;2023-05-10T08:54:24;8.02;;;3.25;;
71343;SDS011;59146;43.850;25.948;2023-05-10T08:56:50;4.38;;;3.00;;
71343;SDS011;59146;43.850;25.948;2023-05-10T08:59:15;5.47;;;2.45;;
71343;SDS011;59146;43.850;25.948;2023-05-10T09:01:41;6.10;;;2.85;;
71343;SDS011;59146;43.850;25.948;2023-05-10T09:04:09;3.80;;;2.53;;
71343;SDS011;59146;43.850;25.948;2023-05-10T09:06:34;5.75;;;2.63;;
71343;SDS011;59146;43.850;25.948;2023-05-10T09:09:00;5.93;;;2.83;;
71343;SDS011;59146;43.850;25.948;2023-05-10T09:11:26;9.05;;;2.50;;
71343;SDS011;59146;43.850;25.948;2023-05-10T09:13:53;4.32;;;2.80;;
71343;SDS011;59146;43.850;25.948;2023-05-10T09:16:20;13.73;;;2.95;;
71343;SDS011;59146;43.850;25.948;2023-05-10T09:18:46;6.47;;;2.65;;
71343;SDS011;59146;43.850;25.948;2023-05-10T09:21:11;4.82;;;2.60;;
71343;SDS011;59146;43.850;25.948;2023-05-10T09:23:37;7.55;;;3.08;;
71343;SDS011;59146;43.850;25.948;2023-05-10T09:26:03;11.35;;;2.90;;
71343;SDS011;59146;43.850;25.948;2023-05-10T09:29:11;3.85;;;2.60;;
71343;SDS011;59146;43.850;25.948;2023-05-10T09:31:20;3.53;;;2.63;;
71343;SDS011;59146;43.850;25.948;2023-05-10T09:33:46;4.43;;;2.65;;
71343;SDS011;59146;43.850;25.948;2023-05-10T09:36:13;2.85;;;2.13;;
71343;SDS011;59146;43.850;25.948;2023-05-10T09:41:15;6.82;;;3.00;;
71343;SDS011;59146;43.850;25.948;2023-05-10T09:43:42;2.28;;;2.08;;
71343;SDS011;59146;43.850;25.948;2023-05-10T09:46:10;6.22;;;3.10;;
71343;SDS011;59146;43.850;25.948;2023-05-10T09:48:43;3.83;;;2.83;;
71343;SDS011;59146;43.850;25.948;2023-05-10T09:51:17;7.68;;;3.08;;
71343;SDS011;59146;43.850;25.948;2023-05-10T09:53:44;6.35;;;3.10;;
71343;SDS011;59146;43.850;25.948;2023-05-10T09:56:09;3.72;;;2.22;;
71343;SDS011;59146;43.850;25.948;2023-05-10T09:58:36;5.88;;;2.88;;
71343;SDS011;59146;43.850;25.948;2023-05-10T10:01:03;5.63;;;2.95;;
71343;SDS011;59146;43.850;25.948;2023-05-10T10:03:28;3.45;;;2.38;;
71343;SDS011;59146;43.850;25.948;2023-05-10T10:05:55;5.65;;;2.88;;
71343;SDS011;59146;43.850;25.948;2023-05-10T10:08:21;5.43;;;2.95;;
71343;SDS011;59146;43.850;25.948;2023-05-10T10:10:46;8.05;;;2.72;;
71343;SDS011;59146;43.850;25.948;2023-05-10T10:13:12;9.40;;;2.70;;
71343;SDS011;59146;43.850;25.948;2023-05-10T10:15:38;9.02;;;2.65;;
71343;SDS011;59146;43.850;25.948;2023-05-10T10:18:04;2.92;;;2.30;;
71343;SDS011;59146;43.850;25.948;2023-05-10T10:20:30;8.48;;;2.88;;
71343;SDS011;59146;43.850;25.948;2023-05-10T10:22:56;8.75;;;3.50;;
71343;SDS011;59146;43.850;25.948;2023-05-10T10:25:29;9.70;;;2.90;;
71343;SDS011;59146;43.850;25.948;2023-05-10T10:28:18;8.32;;;2.40;;
71343;SDS011;59146;43.850;25.948;2023-05-10T10:30:51;3.92;;;2.20;;
71343;SDS011;59146;43.850;25.948;2023-05-10T10:36:24;6.07;;;2.70;;
71343;SDS011;59146;43.850;25.948;2023-05-10T10:41:28;5.45;;;2.70;;
71343;SDS011;59146;43.850;25.948;2023-05-10T10:52:32;3.08;;;1.83;;
71343;SDS011;59146;43.850;25.948;2023-05-10T10:55:04;3.95;;;2.55;;
71343;SDS011;59146;43.850;25.948;2023-05-10T10:57:47;2.75;;;2.35;;
71343;SDS011;59146;43.850;25.948;2023-05-10T11:00:26;9.13;;;2.58;;
71343;SDS011;59146;43.850;25.948;2023-05-10T11:02:55;6.95;;;2.80;;
71343;SDS011;59146;43.850;25.948;2023-05-10T11:05:44;2.42;;;2.22;;
71343;SDS011;59146;43.850;25.948;2023-05-10T11:08:14;4.05;;;1.80;;
71343;SDS011;59146;43.850;25.948;2023-05-10T11:10:51;3.03;;;1.90;;
71343;SDS011;59146;43.850;25.948;2023-05-10T11:16:23;3.47;;;2.30;;
71343;SDS011;59146;43.850;25.948;2023-05-10T11:21:32;2.47;;;2.00;;
71343;SDS011;59146;43.850;25.948;2023-05-10T11:23:58;3.22;;;2.15;;
71343;SDS011;59146;43.850;25.948;2023-05-10T11:26:26;2.15;;;1.80;;
71343;SDS011;59146;43.850;25.948;2023-05-10T11:28:57;3.38;;;2.63;;
71343;SDS011;59146;43.850;25.948;2023-05-10T11:31:26;9.25;;;2.30;;
71343;SDS011;59146;43.850;25.948;2023-05-10T11:33:53;3.30;;;2.05;;
71343;SDS011;59146;43.850;25.948;2023-05-10T11:36:21;3.35;;;2.00;;
71343;SDS011;59146;43.850;25.948;2023-05-10T11:38:50;9.95;;;2.15;;
71343;SDS011;59146;43.850;25.948;2023-05-10T11:41:17;1.92;;;1.70;;
71343;SDS011;59146;43.850;25.948;2023-05-10T11:43:45;3.03;;;2.10;;
71343;SDS011;59146;43.850;25.948;2023-05-10T11:46:13;4.43;;;2.20;;
71343;SDS011;59146;43.850;25.948;2023-05-10T11:48:40;2.22;;;2.00;;
71343;SDS011;59146;43.850;25.948;2023-05-10T11:51:07;8.07;;;2.03;;
71343;SDS011;59146;43.850;25.948;2023-05-10T11:53:33;4.35;;;2.00;;
71343;SDS011;59146;43.850;25.948;2023-05-10T11:56:08;4.43;;;1.90;;
71343;SDS011;59146;43.850;25.948;2023-05-10T11:58:35;5.65;;;1.80;;
71343;SDS011;59146;43.850;25.948;2023-05-10T12:01:02;4.22;;;1.98;;
71343;SDS011;59146;43.850;25.948;2023-05-10T12:03:34;2.92;;;1.98;;
71343;SDS011;59146;43.850;25.948;2023-05-10T12:06:01;5.20;;;2.10;;
71343;SDS011;59146;43.850;25.948;2023-05-10T12:08:28;5.63;;;2.42;;
71343;SDS011;59146;43.850;25.948;2023-05-10T12:11:04;5.05;;;2.58;;
71343;SDS011;59146;43.850;25.948;2023-05-10T12:13:31;3.78;;;2.10;;
71343;SDS011;59146;43.850;25.948;2023-05-10T12:15:57;3.75;;;2.15;;
71343;SDS011;59146;43.850;25.948;2023-05-10T12:18:23;3.67;;;2.25;;
71343;SDS011;59146;43.850;25.948;2023-05-10T12:20:51;4.57;;;2.00;;
71343;SDS011;59146;43.850;25.948;2023-05-10T12:23:18;14.32;;;2.30;;
71343;SDS011;59146;43.850;25.948;2023-05-10T12:25:45;9.77;;;2.40;;
71343;SDS011;59146;43.850;25.948;2023-05-10T12:28:11;3.97;;;2.17;;
71343;SDS011;59146;43.850;25.948;2023-05-10T12:30:37;2.70;;;1.95;;
71343;SDS011;59146;43.850;25.948;2023-05-10T12:33:10;2.08;;;1.80;;
71343;SDS011;59146;43.850;25.948;2023-05-10T12:35:43;4.68;;;2.40;;
71343;SDS011;59146;43.850;25.948;2023-05-10T12:38:25;32.72;;;3.92;;
71343;SDS011;59146;43.850;25.948;2023-05-10T12:40:50;5.10;;;2.10;;
71343;SDS011;59146;43.850;25.948;2023-05-10T12:43:16;5.65;;;1.98;;
71343;SDS011;59146;43.850;25.948;2023-05-10T12:45:41;5.65;;;2.10;;
71343;SDS011;59146;43.850;25.948;2023-05-10T12:48:07;3.70;;;2.10;;
71343;SDS011;59146;43.850;25.948;2023-05-10T12:50:32;3.05;;;1.95;;
71343;SDS011;59146;43.850;25.948;2023-05-10T12:52:57;14.82;;;2.40;;
71343;SDS011;59146;43.850;25.948;2023-05-10T12:55:23;4.03;;;1.98;;
71343;SDS011;59146;43.850;25.948;2023-05-10T12:57:48;20.98;;;3.03;;
71343;SDS011;59146;43.850;25.948;2023-05-10T13:00:14;5.40;;;2.40;;
71343;SDS011;59146;43.850;25.948;2023-05-10T13:02:39;3.72;;;2.42;;
71343;SDS011;59146;43.850;25.948;2023-05-10T13:05:05;3.33;;;1.85;;
71343;SDS011;59146;43.850;25.948;2023-05-10T13:07:31;9.30;;;2.58;;
71343;SDS011;59146;43.850;25.948;2023-05-10T13:09:56;1.58;;;1.48;;
71343;SDS011;59146;43.850;25.948;2023-05-10T13:12:22;4.13;;;2.08;;
71343;SDS011;59146;43.850;25.948;2023-05-10T13:14:47;7.82;;;2.67;;
71343;SDS011;59146;43.850;25.948;2023-05-10T13:17:12;7.75;;;3.72;;
71343;SDS011;59146;43.850;25.948;2023-05-10T13:19:38;8.40;;;3.67;;
71343;SDS011;59146;43.850;25.948;2023-05-10T13:22:03;3.15;;;1.98;;
71343;SDS011;59146;43.850;25.948;2023-05-10T13:24:28;6.07;;;2.20;;
71343;SDS011;59146;43.850;25.948;2023-05-10T13:26:54;6.47;;;2.92;;
71343;SDS011;59146;43.850;25.948;2023-05-10T13:29:19;4.22;;;2.20;;
71343;SDS011;59146;43.850;25.948;2023-05-10T13:31:47;3.17;;;2.20;;
71343;SDS011;59146;43.850;25.948;2023-05-10T13:34:12;4.20;;;2.30;;
71343;SDS011;59146;43.850;25.948;2023-05-10T13:36:38;9.32;;;2.47;;
71343;SDS011;59146;43.850;25.948;2023-05-10T13:39:03;11.65;;;2.47;;
71343;SDS011;59146;43.850;25.948;2023-05-10T13:41:30;5.43;;;2.35;;
71343;SDS011;59146;43.850;25.948;2023-05-10T13:43:55;3.55;;;1.85;;
71343;SDS011;59146;43.850;25.948;2023-05-10T13:46:21;4.78;;;2.13;;
71343;SDS011;59146;43.850;25.948;2023-05-10T13:48:46;6.47;;;1.77;;
71343;SDS011;59146;43.850;25.948;2023-05-10T13:51:12;3.92;;;2.15;;
71343;SDS011;59146;43.850;25.948;2023-05-10T13:53:37;9.13;;;2.20;;
71343;SDS011;59146;43.850;25.948;2023-05-10T13:56:03;5.90;;;2.55;;
71343;SDS011;59146;43.850;25.948;2023-05-10T13:58:28;4.30;;;2.40;;
71343;SDS011;59146;43.850;25.948;2023-05-10T14:00:54;6.03;;;2.45;;
71343;SDS011;59146;43.850;25.948;2023-05-10T14:03:20;7.18;;;2.20;;
71343;SDS011;59146;43.850;25.948;2023-05-10T14:05:46;4.43;;;2.35;;
71343;SDS011;59146;43.850;25.948;2023-05-10T14:08:12;4.75;;;2.20;;
71343;SDS011;59146;43.850;25.948;2023-05-10T14:10:38;7.10;;;2.65;;
71343;SDS011;59146;43.850;25.948;2023-05-10T14:13:04;3.13;;;2.20;;
71343;SDS011;59146;43.850;25.948;2023-05-10T14:15:29;6.65;;;2.20;;
71343;SDS011;59146;43.850;25.948;2023-05-10T14:17:55;2.88;;;1.88;;
71343;SDS011;59146;43.850;25.948;2023-05-10T14:20:21;3.85;;;2.22;;
71343;SDS011;59146;43.850;25.948;2023-05-10T14:22:46;2.80;;;1.98;;
71343;SDS011;59146;43.850;25.948;2023-05-10T14:25:11;6.13;;;2.33;;
71343;SDS011;59146;43.850;25.948;2023-05-10T14:27:38;6.85;;;1.98;;
71343;SDS011;59146;43.850;25.948;2023-05-10T14:30:03;2.35;;;2.00;;
71343;SDS011;59146;43.850;25.948;2023-05-10T14:32:29;2.95;;;2.40;;
71343;SDS011;59146;43.850;25.948;2023-05-10T14:34:56;7.82;;;2.53;;
71343;SDS011;59146;43.850;25.948;2023-05-10T14:37:22;7.50;;;2.42;;
71343;SDS011;59146;43.850;25.948;2023-05-10T14:39:47;4.32;;;2.10;;
71343;SDS011;59146;43.850;25.948;2023-05-10T14:42:13;8.38;;;2.60;;
71343;SDS011;59146;43.850;25.948;2023-05-10T14:44:38;6.85;;;1.85;;
71343;SDS011;59146;43.850;25.948;2023-05-10T14:47:04;3.90;;;2.50;;
71343;SDS011;59146;43.850;25.948;2023-05-10T14:49:30;2.92;;;1.98;;
71343;SDS011;59146;43.850;25.948;2023-05-10T14:51:55;8.57;;;2.53;;
71343;SDS011;59146;43.850;25.948;2023-05-10T14:54:21;5.72;;;2.05;;
71343;SDS011;59146;43.850;25.948;2023-05-10T14:56:46;4.70;;;2.70;;
71343;SDS011;59146;43.850;25.948;2023-05-10T14:59:13;5.78;;;1.95;;
71343;SDS011;59146;43.850;25.948;2023-05-10T15:01:39;4.75;;;1.98;;
71343;SDS011;59146;43.850;25.948;2023-05-10T15:04:06;5.53;;;2.13;;
71343;SDS011;59146;43.850;25.948;2023-05-10T15:06:32;3.42;;;1.90;;
71343;SDS011;59146;43.850;25.948;2023-05-10T15:08:59;5.28;;;2.00;;